sensor_id;sensor_type;location;lat;lon;timestamp;P1;durP1;ratioP1;P2;durP2;ratioP2
78555;SDS011;67851;51.354;7.744;2024-03-02T00:00:39;3.85;;;2.55;;
78555;SDS011;67851;51.354;7.744;2024-03-02T00:03:06;3.22;;;1.98;;
78555;SDS011;67851;51.354;7.744;2024-03-02T00:05:36;4.85;;;2.83;;
78555;SDS011;67851;51.354;7.744;2024-03-02T00:08:03;4.53;;;2.90;;
78555;SDS011;67851;51.354;7.744;2024-03-02T00:10:35;3.35;;;2.47;;
78555;SDS011;67851;51.354;7.744;2024-03-02T00:13:06;3.65;;;2.63;;
78555;SDS011;67851;51.354;7.744;2024-03-02T00:18:16;4.22;;;2.70;;
78555;SDS011;67851;51.354;7.744;2024-03-02T00:20:46;6.43;;;2.90;;
78555;SDS011;67851;51.354;7.744;2024-03-02T00:23:14;7.40;;;2.75;;
78555;SDS011;67851;51.354;7.744;2024-03-02T00:25:44;4.30;;;2.90;;
78555;SDS011;67851;51.354;7.744;2024-03-02T00:33:49;3.65;;;2.45;;
78555;SDS011;67851;51.354;7.744;2024-03-02T00:36:16;3.40;;;2.17;;
78555;SDS011;67851;51.354;7.744;2024-03-02T00:38:49;4.03;;;2.67;;
78555;SDS011;67851;51.354;7.744;2024-03-02T00:41:19;3.95;;;2.45;;
78555;SDS011;67851;51.354;7.744;2024-03-02T00:46:29;6.30;;;2.50;;
78555;SDS011;67851;51.354;7.744;2024-03-02T00:49:00;4.38;;;2.38;;
78555;SDS011;67851;51.354;7.744;2024-03-02T00:51:29;5.53;;;2.30;;
78555;SDS011;67851;51.354;7.744;2024-03-02T00:54:07;5.78;;;2.40;;
78555;SDS011;67851;51.354;7.744;2024-03-02T00:56:34;6.22;;;2.60;;
78555;SDS011;67851;51.354;7.744;2024-03-02T00:59:02;2.65;;;2.00;;
78555;SDS011;67851;51.354;7.744;2024-03-02T01:01:29;4.10;;;2.65;;
78555;SDS011;67851;51.354;7.744;2024-03-02T01:03:56;3.90;;;2.17;;
78555;SDS011;67851;51.354;7.744;2024-03-02T01:06:23;2.80;;;1.95;;
78555;SDS011;67851;51.354;7.744;2024-03-02T01:08:51;3.45;;;2.33;;
78555;SDS011;67851;51.354;7.744;2024-03-02T01:11:19;7.20;;;1.85;;
78555;SDS011;67851;51.354;7.744;2024-03-02T01:13:49;3.28;;;2.30;;
78555;SDS011;67851;51.354;7.744;2024-03-02T01:16:16;2.92;;;1.90;;
78555;SDS011;67851;51.354;7.744;2024-03-02T01:18:43;4.95;;;2.38;;
78555;SDS011;67851;51.354;7.744;2024-03-02T01:21:10;3.13;;;1.90;;
78555;SDS011;67851;51.354;7.744;2024-03-02T01:23:37;4.38;;;2.03;;
78555;SDS011;67851;51.354;7.744;2024-03-02T01:26:04;5.90;;;2.33;;
78555;SDS011;67851;51.354;7.744;2024-03-02T01:28:35;3.38;;;2.38;;
78555;SDS011;67851;51.354;7.744;2024-03-02T01:31:02;5.88;;;2.83;;
78555;SDS011;67851;51.354;7.744;2024-03-02T01:33:29;5.07;;;2.13;;
78555;SDS011;67851;51.354;7.744;2024-03-02T01:35:56;2.88;;;1.90;;
78555;SDS011;67851;51.354;7.744;2024-03-02T01:38:24;3.22;;;2.05;;
78555;SDS011;67851;51.354;7.744;2024-03-02T01:40:51;5.03;;;2.25;;
78555;SDS011;67851;51.354;7.744;2024-03-02T01:43:19;3.83;;;2.00;;
78555;SDS011;67851;51.354;7.744;2024-03-02T01:45:47;2.92;;;2.22;;
78555;SDS011;67851;51.354;7.744;2024-03-02T01:48:14;3.08;;;2.00;;
78555;SDS011;67851;51.354;7.744;2024-03-02T01:50:41;4.65;;;2.00;;
78555;SDS011;67851;51.354;7.744;2024-03-02T01:53:07;10.23;;;2.13;;
78555;SDS011;67851;51.354;7.744;2024-03-02T01:55:35;3.75;;;2.25;;
78555;SDS011;67851;51.354;7.744;2024-03-02T01:58:02;2.88;;;1.98;;
78555;SDS011;67851;51.354;7.744;2024-03-02T02:00:29;3.38;;;2.15;;
78555;SDS011;67851;51.354;7.744;2024-03-02T02:02:57;3.13;;;1.85;;
78555;SDS011;67851;51.354;7.744;2024-03-02T02:05:24;2.72;;;2.00;;
78555;SDS011;67851;51.354;7.744;2024-03-02T02:07:51;3.20;;;1.90;;
78555;SDS011;67851;51.354;7.744;2024-03-02T02:10:17;3.58;;;2.38;;
78555;SDS011;67851;51.354;7.744;2024-03-02T02:12:45;4.40;;;1.77;;
78555;SDS011;67851;51.354;7.744;2024-03-02T02:15:22;5.25;;;2.20;;
78555;SDS011;67851;51.354;7.744;2024-03-02T02:17:53;2.92;;;2.00;;
78555;SDS011;67851;51.354;7.744;2024-03-02T02:20:20;3.72;;;1.85;;
78555;SDS011;67851;51.354;7.744;2024-03-02T02:23:05;8.23;;;1.90;;
78555;SDS011;67851;51.354;7.744;2024-03-02T02:25:35;4.72;;;1.75;;
78555;SDS011;67851;51.354;7.744;2024-03-02T02:28:02;8.00;;;1.95;;
78555;SDS011;67851;51.354;7.744;2024-03-02T02:30:29;4.07;;;2.10;;
78555;SDS011;67851;51.354;7.744;2024-03-02T02:32:57;5.90;;;2.00;;
78555;SDS011;67851;51.354;7.744;2024-03-02T02:35:24;3.33;;;1.80;;
78555;SDS011;67851;51.354;7.744;2024-03-02T02:37:55;4.32;;;1.73;;
78555;SDS011;67851;51.354;7.744;2024-03-02T02:40:22;4.18;;;1.70;;
78555;SDS011;67851;51.354;7.744;2024-03-02T02:42:49;2.75;;;1.90;;
78555;SDS011;67851;51.354;7.744;2024-03-02T02:45:18;4.95;;;2.20;;
78555;SDS011;67851;51.354;7.744;2024-03-02T02:47:45;5.05;;;1.60;;
78555;SDS011;67851;51.354;7.744;2024-03-02T02:50:11;3.25;;;2.10;;
78555;SDS011;67851;51.354;7.744;2024-03-02T02:52:39;2.47;;;1.88;;
78555;SDS011;67851;51.354;7.744;2024-03-02T02:55:08;3.03;;;1.83;;
78555;SDS011;67851;51.354;7.744;2024-03-02T02:57:58;3.05;;;1.60;;
78555;SDS011;67851;51.354;7.744;2024-03-02T03:00:24;5.07;;;2.03;;
78555;SDS011;67851;51.354;7.744;2024-03-02T03:02:51;4.63;;;1.90;;
78555;SDS011;67851;51.354;7.744;2024-03-02T03:05:18;6.22;;;2.33;;
78555;SDS011;67851;51.354;7.744;2024-03-02T03:07:46;3.70;;;1.98;;
78555;SDS011;67851;51.354;7.744;2024-03-02T03:10:17;3.67;;;1.98;;
78555;SDS011;67851;51.354;7.744;2024-03-02T03:12:46;3.97;;;2.00;;
78555;SDS011;67851;51.354;7.744;2024-03-02T03:15:13;4.60;;;2.03;;
78555;SDS011;67851;51.354;7.744;2024-03-02T03:17:40;4.80;;;2.00;;
78555;SDS011;67851;51.354;7.744;2024-03-02T03:20:07;4.20;;;2.40;;
78555;SDS011;67851;51.354;7.744;2024-03-02T03:22:38;4.35;;;1.98;;
78555;SDS011;67851;51.354;7.744;2024-03-02T03:25:05;3.45;;;1.95;;
78555;SDS011;67851;51.354;7.744;2024-03-02T03:27:32;7.15;;;2.50;;
78555;SDS011;67851;51.354;7.744;2024-03-02T03:29:58;3.72;;;2.22;;
78555;SDS011;67851;51.354;7.744;2024-03-02T03:32:25;5.75;;;2.13;;
78555;SDS011;67851;51.354;7.744;2024-03-02T03:34:52;9.48;;;3.65;;
78555;SDS011;67851;51.354;7.744;2024-03-02T03:37:20;5.45;;;2.75;;
78555;SDS011;67851;51.354;7.744;2024-03-02T03:39:47;3.25;;;2.08;;
78555;SDS011;67851;51.354;7.744;2024-03-02T03:42:14;5.63;;;2.50;;
78555;SDS011;67851;51.354;7.744;2024-03-02T03:44:42;5.05;;;2.50;;
78555;SDS011;67851;51.354;7.744;2024-03-02T03:47:09;3.80;;;2.25;;
78555;SDS011;67851;51.354;7.744;2024-03-02T03:49:36;4.15;;;2.35;;
78555;SDS011;67851;51.354;7.744;2024-03-02T03:52:02;3.78;;;2.40;;
78555;SDS011;67851;51.354;7.744;2024-03-02T03:54:30;6.60;;;2.75;;
78555;SDS011;67851;51.354;7.744;2024-03-02T03:56:57;4.18;;;2.30;;
78555;SDS011;67851;51.354;7.744;2024-03-02T03:59:23;4.47;;;2.50;;
78555;SDS011;67851;51.354;7.744;2024-03-02T04:01:50;4.95;;;2.50;;
78555;SDS011;67851;51.354;7.744;2024-03-02T04:04:17;4.15;;;2.38;;
78555;SDS011;67851;51.354;7.744;2024-03-02T04:06:43;5.55;;;2.55;;
78555;SDS011;67851;51.354;7.744;2024-03-02T04:09:11;5.03;;;2.65;;
78555;SDS011;67851;51.354;7.744;2024-03-02T04:11:37;5.90;;;2.70;;
78555;SDS011;67851;51.354;7.744;2024-03-02T04:14:04;3.97;;;2.50;;
78555;SDS011;67851;51.354;7.744;2024-03-02T04:16:32;6.22;;;3.08;;
78555;SDS011;67851;51.354;7.744;2024-03-02T04:18:59;4.88;;;2.50;;
78555;SDS011;67851;51.354;7.744;2024-03-02T04:21:26;7.20;;;2.78;;
78555;SDS011;67851;51.354;7.744;2024-03-02T04:23:53;4.70;;;2.45;;
78555;SDS011;67851;51.354;7.744;2024-03-02T04:26:24;7.85;;;3.40;;
78555;SDS011;67851;51.354;7.744;2024-03-02T04:28:52;4.88;;;3.00;;
78555;SDS011;67851;51.354;7.744;2024-03-02T04:31:19;5.35;;;2.80;;
78555;SDS011;67851;51.354;7.744;2024-03-02T04:33:45;4.47;;;2.55;;
78555;SDS011;67851;51.354;7.744;2024-03-02T04:36:12;4.25;;;2.55;;
78555;SDS011;67851;51.354;7.744;2024-03-02T04:38:38;6.05;;;2.50;;
78555;SDS011;67851;51.354;7.744;2024-03-02T04:41:06;6.15;;;2.55;;
78555;SDS011;67851;51.354;7.744;2024-03-02T04:43:33;8.20;;;2.88;;
78555;SDS011;67851;51.354;7.744;2024-03-02T04:46:00;5.28;;;2.60;;
78555;SDS011;67851;51.354;7.744;2024-03-02T04:48:28;5.80;;;2.63;;
78555;SDS011;67851;51.354;7.744;2024-03-02T04:50:54;5.65;;;2.80;;
78555;SDS011;67851;51.354;7.744;2024-03-02T04:53:21;5.05;;;2.88;;
78555;SDS011;67851;51.354;7.744;2024-03-02T04:55:48;7.25;;;3.10;;
78555;SDS011;67851;51.354;7.744;2024-03-02T04:58:50;5.80;;;2.70;;
78555;SDS011;67851;51.354;7.744;2024-03-02T05:01:17;7.72;;;3.33;;
78555;SDS011;67851;51.354;7.744;2024-03-02T05:03:44;5.35;;;2.97;;
78555;SDS011;67851;51.354;7.744;2024-03-02T05:06:11;5.80;;;2.90;;
78555;SDS011;67851;51.354;7.744;2024-03-02T05:08:38;4.60;;;2.67;;
78555;SDS011;67851;51.354;7.744;2024-03-02T05:11:05;5.07;;;2.92;;
78555;SDS011;67851;51.354;7.744;2024-03-02T05:13:50;8.43;;;3.33;;
78555;SDS011;67851;51.354;7.744;2024-03-02T05:16:16;5.78;;;3.35;;
78555;SDS011;67851;51.354;7.744;2024-03-02T05:18:43;6.60;;;3.38;;
78555;SDS011;67851;51.354;7.744;2024-03-02T05:21:11;6.38;;;3.92;;
78555;SDS011;67851;51.354;7.744;2024-03-02T05:23:38;8.45;;;3.67;;
78555;SDS011;67851;51.354;7.744;2024-03-02T05:26:05;6.90;;;3.53;;
78555;SDS011;67851;51.354;7.744;2024-03-02T05:28:32;7.43;;;3.55;;
78555;SDS011;67851;51.354;7.744;2024-03-02T05:30:58;6.43;;;3.45;;
78555;SDS011;67851;51.354;7.744;2024-03-02T05:33:25;6.93;;;3.55;;
78555;SDS011;67851;51.354;7.744;2024-03-02T05:35:52;9.52;;;3.88;;
78555;SDS011;67851;51.354;7.744;2024-03-02T05:38:18;7.60;;;3.67;;
78555;SDS011;67851;51.354;7.744;2024-03-02T05:40:45;8.60;;;3.67;;
78555;SDS011;67851;51.354;7.744;2024-03-02T05:43:11;8.13;;;4.90;;
78555;SDS011;67851;51.354;7.744;2024-03-02T05:45:38;9.25;;;4.03;;
78555;SDS011;67851;51.354;7.744;2024-03-02T05:48:06;6.88;;;3.50;;
78555;SDS011;67851;51.354;7.744;2024-03-02T05:50:34;8.75;;;4.13;;
78555;SDS011;67851;51.354;7.744;2024-03-02T05:53:00;10.25;;;4.28;;
78555;SDS011;67851;51.354;7.744;2024-03-02T05:55:27;8.60;;;3.90;;
78555;SDS011;67851;51.354;7.744;2024-03-02T05:57:54;6.53;;;4.22;;
78555;SDS011;67851;51.354;7.744;2024-03-02T06:00:33;7.18;;;4.20;;
78555;SDS011;67851;51.354;7.744;2024-03-02T06:02:59;6.82;;;4.05;;
78555;SDS011;67851;51.354;7.744;2024-03-02T06:05:27;7.57;;;4.57;;
78555;SDS011;67851;51.354;7.744;2024-03-02T06:07:53;8.48;;;4.78;;
78555;SDS011;67851;51.354;7.744;2024-03-02T06:10:21;8.88;;;5.20;;
78555;SDS011;67851;51.354;7.744;2024-03-02T06:12:47;9.75;;;4.47;;
78555;SDS011;67851;51.354;7.744;2024-03-02T06:15:15;6.70;;;4.35;;
78555;SDS011;67851;51.354;7.744;2024-03-02T06:17:41;9.30;;;4.30;;
78555;SDS011;67851;51.354;7.744;2024-03-02T06:20:08;8.77;;;5.20;;
78555;SDS011;67851;51.354;7.744;2024-03-02T06:22:37;6.72;;;4.18;;
78555;SDS011;67851;51.354;7.744;2024-03-02T06:25:04;8.07;;;4.53;;
78555;SDS011;67851;51.354;7.744;2024-03-02T06:27:32;7.57;;;4.57;;
78555;SDS011;67851;51.354;7.744;2024-03-02T06:29:58;6.95;;;4.32;;
78555;SDS011;67851;51.354;7.744;2024-03-02T06:32:25;22.77;;;5.70;;
78555;SDS011;67851;51.354;7.744;2024-03-02T06:34:52;9.25;;;4.18;;
78555;SDS011;67851;51.354;7.744;2024-03-02T06:37:19;10.07;;;5.18;;
78555;SDS011;67851;51.354;7.744;2024-03-02T06:39:46;8.15;;;4.85;;
78555;SDS011;67851;51.354;7.744;2024-03-02T06:42:13;7.68;;;5.32;;
78555;SDS011;67851;51.354;7.744;2024-03-02T06:44:40;8.45;;;4.95;;
78555;SDS011;67851;51.354;7.744;2024-03-02T06:47:06;9.07;;;5.10;;
78555;SDS011;67851;51.354;7.744;2024-03-02T06:49:33;8.48;;;4.55;;
78555;SDS011;67851;51.354;7.744;2024-03-02T06:52:01;8.50;;;5.00;;
78555;SDS011;67851;51.354;7.744;2024-03-02T06:54:28;9.52;;;5.63;;
78555;SDS011;67851;51.354;7.744;2024-03-02T06:56:54;9.02;;;5.35;;
78555;SDS011;67851;51.354;7.744;2024-03-02T06:59:22;9.85;;;4.55;;
78555;SDS011;67851;51.354;7.744;2024-03-02T07:01:50;9.48;;;4.93;;
78555;SDS011;67851;51.354;7.744;2024-03-02T07:04:17;8.73;;;4.90;;
78555;SDS011;67851;51.354;7.744;2024-03-02T07:06:43;7.07;;;4.63;;
78555;SDS011;67851;51.354;7.744;2024-03-02T07:09:10;8.85;;;4.60;;
78555;SDS011;67851;51.354;7.744;2024-03-02T07:11:37;7.28;;;4.57;;
78555;SDS011;67851;51.354;7.744;2024-03-02T07:14:04;7.40;;;4.40;;
78555;SDS011;67851;51.354;7.744;2024-03-02T07:16:31;7.63;;;4.53;;
78555;SDS011;67851;51.354;7.744;2024-03-02T07:18:59;6.05;;;4.00;;
78555;SDS011;67851;51.354;7.744;2024-03-02T07:21:28;6.30;;;4.50;;
78555;SDS011;67851;51.354;7.744;2024-03-02T07:23:54;7.63;;;4.10;;
78555;SDS011;67851;51.354;7.744;2024-03-02T07:26:21;7.35;;;4.38;;
78555;SDS011;67851;51.354;7.744;2024-03-02T07:28:53;7.05;;;4.68;;
78555;SDS011;67851;51.354;7.744;2024-03-02T07:31:20;8.10;;;4.32;;
78555;SDS011;67851;51.354;7.744;2024-03-02T07:33:47;6.78;;;3.97;;
78555;SDS011;67851;51.354;7.744;2024-03-02T07:36:14;6.85;;;4.05;;
78555;SDS011;67851;51.354;7.744;2024-03-02T07:38:41;6.13;;;4.40;;
78555;SDS011;67851;51.354;7.744;2024-03-02T07:41:11;8.52;;;4.47;;
78555;SDS011;67851;51.354;7.744;2024-03-02T07:43:38;7.30;;;4.45;;
78555;SDS011;67851;51.354;7.744;2024-03-02T07:46:06;11.00;;;4.18;;
78555;SDS011;67851;51.354;7.744;2024-03-02T07:48:34;14.77;;;4.22;;
78555;SDS011;67851;51.354;7.744;2024-03-02T07:51:00;5.63;;;3.63;;
78555;SDS011;67851;51.354;7.744;2024-03-02T07:53:29;6.63;;;4.10;;
78555;SDS011;67851;51.354;7.744;2024-03-02T07:55:56;8.27;;;4.20;;
78555;SDS011;67851;51.354;7.744;2024-03-02T07:58:29;9.38;;;4.10;;
78555;SDS011;67851;51.354;7.744;2024-03-02T08:00:56;5.60;;;3.47;;
78555;SDS011;67851;51.354;7.744;2024-03-02T08:03:24;6.90;;;3.83;;
78555;SDS011;67851;51.354;7.744;2024-03-02T08:08:33;4.63;;;3.30;;
78555;SDS011;67851;51.354;7.744;2024-03-02T08:11:00;6.07;;;3.63;;
78555;SDS011;67851;51.354;7.744;2024-03-02T08:13:28;5.32;;;3.72;;
78555;SDS011;67851;51.354;7.744;2024-03-02T08:15:55;5.90;;;3.75;;
78555;SDS011;67851;51.354;7.744;2024-03-02T08:18:23;6.30;;;3.78;;
78555;SDS011;67851;51.354;7.744;2024-03-02T08:20:50;6.32;;;3.85;;
78555;SDS011;67851;51.354;7.744;2024-03-02T08:23:17;8.73;;;3.50;;
78555;SDS011;67851;51.354;7.744;2024-03-02T08:25:44;8.50;;;3.38;;
78555;SDS011;67851;51.354;7.744;2024-03-02T08:28:11;6.25;;;3.30;;
78555;SDS011;67851;51.354;7.744;2024-03-02T08:30:38;4.93;;;3.40;;
78555;SDS011;67851;51.354;7.744;2024-03-02T08:33:06;4.78;;;3.63;;
78555;SDS011;67851;51.354;7.744;2024-03-02T08:35:33;5.85;;;3.03;;
78555;SDS011;67851;51.354;7.744;2024-03-02T08:38:02;5.45;;;3.60;;
78555;SDS011;67851;51.354;7.744;2024-03-02T08:40:29;7.20;;;3.42;;
78555;SDS011;67851;51.354;7.744;2024-03-02T08:42:56;4.70;;;3.05;;
78555;SDS011;67851;51.354;7.744;2024-03-02T08:45:23;4.00;;;2.88;;
78555;SDS011;67851;51.354;7.744;2024-03-02T08:47:51;5.50;;;2.85;;
78555;SDS011;67851;51.354;7.744;2024-03-02T08:50:18;3.95;;;3.00;;
78555;SDS011;67851;51.354;7.744;2024-03-02T08:52:44;3.97;;;2.70;;
78555;SDS011;67851;51.354;7.744;2024-03-02T08:55:11;5.88;;;3.17;;
78555;SDS011;67851;51.354;7.744;2024-03-02T08:57:40;3.65;;;2.53;;
78555;SDS011;67851;51.354;7.744;2024-03-02T09:00:09;7.40;;;2.80;;
78555;SDS011;67851;51.354;7.744;2024-03-02T09:02:37;4.72;;;2.55;;
78555;SDS011;67851;51.354;7.744;2024-03-02T09:05:05;4.45;;;2.78;;
78555;SDS011;67851;51.354;7.744;2024-03-02T09:07:33;5.80;;;2.50;;
78555;SDS011;67851;51.354;7.744;2024-03-02T09:10:00;4.70;;;2.75;;
78555;SDS011;67851;51.354;7.744;2024-03-02T09:12:27;5.47;;;2.78;;
78555;SDS011;67851;51.354;7.744;2024-03-02T09:14:54;6.57;;;2.72;;
78555;SDS011;67851;51.354;7.744;2024-03-02T09:17:21;4.75;;;2.30;;
78555;SDS011;67851;51.354;7.744;2024-03-02T09:19:48;4.90;;;2.55;;
78555;SDS011;67851;51.354;7.744;2024-03-02T09:22:15;3.75;;;2.20;;
78555;SDS011;67851;51.354;7.744;2024-03-02T09:24:43;3.95;;;2.10;;
78555;SDS011;67851;51.354;7.744;2024-03-02T09:27:10;4.75;;;2.38;;
78555;SDS011;67851;51.354;7.744;2024-03-02T09:29:37;4.78;;;2.05;;
78555;SDS011;67851;51.354;7.744;2024-03-02T09:32:04;3.78;;;2.08;;
78555;SDS011;67851;51.354;7.744;2024-03-02T09:34:32;5.68;;;2.33;;
78555;SDS011;67851;51.354;7.744;2024-03-02T09:36:59;3.72;;;2.17;;
78555;SDS011;67851;51.354;7.744;2024-03-02T09:39:26;2.40;;;1.80;;
78555;SDS011;67851;51.354;7.744;2024-03-02T09:41:53;3.20;;;2.10;;
78555;SDS011;67851;51.354;7.744;2024-03-02T09:44:20;3.30;;;1.80;;
78555;SDS011;67851;51.354;7.744;2024-03-02T09:46:48;4.03;;;2.03;;
78555;SDS011;67851;51.354;7.744;2024-03-02T09:49:15;3.83;;;2.10;;
78555;SDS011;67851;51.354;7.744;2024-03-02T09:51:46;3.05;;;2.05;;
78555;SDS011;67851;51.354;7.744;2024-03-02T09:56:48;2.90;;;1.52;;
78555;SDS011;67851;51.354;7.744;2024-03-02T09:59:15;2.45;;;1.42;;
78555;SDS011;67851;51.354;7.744;2024-03-02T10:01:58;2.22;;;1.50;;
78555;SDS011;67851;51.354;7.744;2024-03-02T10:04:26;2.73;;;1.30;;
78555;SDS011;67851;51.354;7.744;2024-03-02T10:07:08;2.25;;;1.30;;
78555;SDS011;67851;51.354;7.744;2024-03-02T10:09:43;3.92;;;1.70;;
78555;SDS011;67851;51.354;7.744;2024-03-02T10:12:31;1.65;;;1.02;;
78555;SDS011;67851;51.354;7.744;2024-03-02T10:15:03;3.35;;;1.60;;
78555;SDS011;67851;51.354;7.744;2024-03-02T10:17:31;3.38;;;1.15;;
78555;SDS011;67851;51.354;7.744;2024-03-02T10:19:58;10.65;;;1.50;;
78555;SDS011;67851;51.354;7.744;2024-03-02T10:22:24;3.75;;;1.60;;
78555;SDS011;67851;51.354;7.744;2024-03-02T10:24:53;1.10;;;1.00;;
78555;SDS011;67851;51.354;7.744;2024-03-02T10:27:26;2.13;;;1.45;;
78555;SDS011;67851;51.354;7.744;2024-03-02T10:29:54;2.47;;;1.52;;
78555;SDS011;67851;51.354;7.744;2024-03-02T10:32:22;1.95;;;1.20;;
78555;SDS011;67851;51.354;7.744;2024-03-02T10:34:49;2.13;;;1.40;;
78555;SDS011;67851;51.354;7.744;2024-03-02T10:37:16;3.13;;;1.55;;
78555;SDS011;67851;51.354;7.744;2024-03-02T10:39:47;2.83;;;1.42;;
78555;SDS011;67851;51.354;7.744;2024-03-02T10:42:15;3.08;;;1.38;;
78555;SDS011;67851;51.354;7.744;2024-03-02T10:44:44;3.30;;;1.40;;
78555;SDS011;67851;51.354;7.744;2024-03-02T10:47:12;2.10;;;1.50;;
78555;SDS011;67851;51.354;7.744;2024-03-02T10:49:38;3.58;;;1.48;;
78555;SDS011;67851;51.354;7.744;2024-03-02T10:52:08;2.67;;;1.40;;
78555;SDS011;67851;51.354;7.744;2024-03-02T10:54:35;2.20;;;1.10;;
78555;SDS011;67851;51.354;7.744;2024-03-02T10:57:04;2.92;;;1.42;;
78555;SDS011;67851;51.354;7.744;2024-03-02T10:59:33;1.55;;;1.20;;
78555;SDS011;67851;51.354;7.744;2024-03-02T11:02:02;2.20;;;1.27;;
78555;SDS011;67851;51.354;7.744;2024-03-02T11:04:32;2.58;;;1.27;;
78555;SDS011;67851;51.354;7.744;2024-03-02T11:07:07;2.83;;;1.38;;
78555;SDS011;67851;51.354;7.744;2024-03-02T11:09:45;2.22;;;1.10;;
78555;SDS011;67851;51.354;7.744;2024-03-02T11:12:25;3.38;;;1.30;;
78555;SDS011;67851;51.354;7.744;2024-03-02T11:14:55;1.45;;;1.27;;
78555;SDS011;67851;51.354;7.744;2024-03-02T11:17:23;2.42;;;1.10;;
78555;SDS011;67851;51.354;7.744;2024-03-02T11:19:51;2.05;;;1.00;;
78555;SDS011;67851;51.354;7.744;2024-03-02T11:22:18;1.58;;;1.02;;
78555;SDS011;67851;51.354;7.744;2024-03-02T11:24:49;2.35;;;1.20;;
78555;SDS011;67851;51.354;7.744;2024-03-02T11:28:04;1.88;;;1.38;;
78555;SDS011;67851;51.354;7.744;2024-03-02T11:33:05;3.78;;;1.40;;
78555;SDS011;67851;51.354;7.744;2024-03-02T11:35:38;3.28;;;1.10;;
78555;SDS011;67851;51.354;7.744;2024-03-02T11:38:09;1.30;;;1.08;;
78555;SDS011;67851;51.354;7.744;2024-03-02T11:40:36;1.50;;;1.08;;
78555;SDS011;67851;51.354;7.744;2024-03-02T11:43:02;3.63;;;1.50;;
78555;SDS011;67851;51.354;7.744;2024-03-02T11:45:32;2.25;;;1.20;;
78555;SDS011;67851;51.354;7.744;2024-03-02T11:48:00;3.80;;;1.17;;
78555;SDS011;67851;51.354;7.744;2024-03-02T11:50:30;1.90;;;1.15;;
78555;SDS011;67851;51.354;7.744;2024-03-02T11:53:00;3.13;;;1.33;;
78555;SDS011;67851;51.354;7.744;2024-03-02T11:55:28;1.90;;;1.00;;
78555;SDS011;67851;51.354;7.744;2024-03-02T11:57:56;2.30;;;1.30;;
78555;SDS011;67851;51.354;7.744;2024-03-02T12:00:24;2.25;;;1.20;;
78555;SDS011;67851;51.354;7.744;2024-03-02T12:03:00;1.75;;;1.02;;
78555;SDS011;67851;51.354;7.744;2024-03-02T12:05:29;1.38;;;1.00;;
78555;SDS011;67851;51.354;7.744;2024-03-02T12:08:07;1.67;;;1.15;;
78555;SDS011;67851;51.354;7.744;2024-03-02T12:10:36;2.53;;;1.05;;
78555;SDS011;67851;51.354;7.744;2024-03-02T12:13:04;1.45;;;1.00;;
78555;SDS011;67851;51.354;7.744;2024-03-02T12:15:39;1.83;;;0.90;;
78555;SDS011;67851;51.354;7.744;2024-03-02T12:18:08;1.90;;;0.80;;
78555;SDS011;67851;51.354;7.744;2024-03-02T12:20:36;2.05;;;0.85;;
78555;SDS011;67851;51.354;7.744;2024-03-02T12:23:03;1.63;;;0.75;;
78555;SDS011;67851;51.354;7.744;2024-03-02T12:25:31;0.88;;;0.80;;
78555;SDS011;67851;51.354;7.744;2024-03-02T12:28:02;1.80;;;0.70;;
78555;SDS011;67851;51.354;7.744;2024-03-02T12:30:30;1.95;;;1.10;;
78555;SDS011;67851;51.354;7.744;2024-03-02T12:32:57;1.38;;;1.10;;
78555;SDS011;67851;51.354;7.744;2024-03-02T12:35:24;2.85;;;1.45;;
78555;SDS011;67851;51.354;7.744;2024-03-02T12:37:51;1.60;;;1.00;;
78555;SDS011;67851;51.354;7.744;2024-03-02T12:40:19;1.83;;;0.80;;
78555;SDS011;67851;51.354;7.744;2024-03-02T12:42:47;1.00;;;0.70;;
78555;SDS011;67851;51.354;7.744;2024-03-02T12:45:14;0.70;;;0.70;;
78555;SDS011;67851;51.354;7.744;2024-03-02T12:47:42;0.75;;;0.60;;
78555;SDS011;67851;51.354;7.744;2024-03-02T12:50:10;1.15;;;0.75;;
78555;SDS011;67851;51.354;7.744;2024-03-02T12:52:37;1.25;;;0.90;;
78555;SDS011;67851;51.354;7.744;2024-03-02T12:55:04;1.40;;;0.65;;
78555;SDS011;67851;51.354;7.744;2024-03-02T12:57:32;1.80;;;0.80;;
78555;SDS011;67851;51.354;7.744;2024-03-02T13:00:03;1.40;;;0.88;;
78555;SDS011;67851;51.354;7.744;2024-03-02T13:02:36;1.23;;;0.90;;
78555;SDS011;67851;51.354;7.744;2024-03-02T13:05:03;1.85;;;0.70;;
78555;SDS011;67851;51.354;7.744;2024-03-02T13:07:33;1.33;;;0.80;;
78555;SDS011;67851;51.354;7.744;2024-03-02T13:10:01;2.17;;;0.88;;
78555;SDS011;67851;51.354;7.744;2024-03-02T13:12:31;0.75;;;0.60;;
78555;SDS011;67851;51.354;7.744;2024-03-02T13:14:58;1.83;;;0.95;;
78555;SDS011;67851;51.354;7.744;2024-03-02T13:17:29;0.68;;;0.55;;
78555;SDS011;67851;51.354;7.744;2024-03-02T13:20:03;1.17;;;0.65;;
78555;SDS011;67851;51.354;7.744;2024-03-02T13:22:34;1.33;;;0.82;;
78555;SDS011;67851;51.354;7.744;2024-03-02T13:25:01;1.17;;;0.70;;
78555;SDS011;67851;51.354;7.744;2024-03-02T13:27:31;0.90;;;0.60;;
78555;SDS011;67851;51.354;7.744;2024-03-02T13:29:58;2.85;;;1.13;;
78555;SDS011;67851;51.354;7.744;2024-03-02T13:32:25;1.90;;;1.15;;
78555;SDS011;67851;51.354;7.744;2024-03-02T13:34:54;2.65;;;1.00;;
78555;SDS011;67851;51.354;7.744;2024-03-02T13:37:21;1.48;;;1.10;;
78555;SDS011;67851;51.354;7.744;2024-03-02T13:39:48;3.33;;;1.00;;
78555;SDS011;67851;51.354;7.744;2024-03-02T13:42:15;1.90;;;1.15;;
78555;SDS011;67851;51.354;7.744;2024-03-02T13:44:43;2.38;;;0.88;;
78555;SDS011;67851;51.354;7.744;2024-03-02T13:47:12;2.05;;;0.98;;
78555;SDS011;67851;51.354;7.744;2024-03-02T13:49:38;1.95;;;1.30;;
78555;SDS011;67851;51.354;7.744;2024-03-02T13:52:12;1.98;;;1.02;;
78555;SDS011;67851;51.354;7.744;2024-03-02T13:54:40;1.85;;;1.10;;
78555;SDS011;67851;51.354;7.744;2024-03-02T13:57:09;2.40;;;1.00;;
78555;SDS011;67851;51.354;7.744;2024-03-02T13:59:37;1.80;;;1.10;;
78555;SDS011;67851;51.354;7.744;2024-03-02T14:02:05;3.30;;;1.20;;
78555;SDS011;67851;51.354;7.744;2024-03-02T14:04:33;2.35;;;1.10;;
78555;SDS011;67851;51.354;7.744;2024-03-02T14:07:00;2.58;;;1.30;;
78555;SDS011;67851;51.354;7.744;2024-03-02T14:09:27;4.43;;;1.25;;
78555;SDS011;67851;51.354;7.744;2024-03-02T14:11:57;2.72;;;1.10;;
78555;SDS011;67851;51.354;7.744;2024-03-02T14:14:23;2.17;;;1.13;;
78555;SDS011;67851;51.354;7.744;2024-03-02T14:16:50;2.47;;;1.00;;
78555;SDS011;67851;51.354;7.744;2024-03-02T14:19:18;1.85;;;1.00;;
78555;SDS011;67851;51.354;7.744;2024-03-02T14:21:44;2.47;;;1.20;;
78555;SDS011;67851;51.354;7.744;2024-03-02T14:24:12;2.17;;;1.00;;
78555;SDS011;67851;51.354;7.744;2024-03-02T14:26:39;2.35;;;1.10;;
78555;SDS011;67851;51.354;7.744;2024-03-02T14:29:06;2.20;;;1.00;;
78555;SDS011;67851;51.354;7.744;2024-03-02T14:31:32;2.28;;;1.10;;
78555;SDS011;67851;51.354;7.744;2024-03-02T14:34:01;2.15;;;1.25;;
78555;SDS011;67851;51.354;7.744;2024-03-02T14:36:27;2.47;;;1.40;;
78555;SDS011;67851;51.354;7.744;2024-03-02T14:38:56;2.33;;;1.38;;
78555;SDS011;67851;51.354;7.744;2024-03-02T14:41:22;2.17;;;1.10;;
78555;SDS011;67851;51.354;7.744;2024-03-02T14:43:50;1.85;;;1.25;;
78555;SDS011;67851;51.354;7.744;2024-03-02T14:46:17;2.65;;;1.00;;
78555;SDS011;67851;51.354;7.744;2024-03-02T14:48:45;1.27;;;1.00;;
78555;SDS011;67851;51.354;7.744;2024-03-02T14:51:13;1.35;;;0.85;;
78555;SDS011;67851;51.354;7.744;2024-03-02T14:53:41;1.88;;;0.80;;
78555;SDS011;67851;51.354;7.744;2024-03-02T14:56:08;2.15;;;1.00;;
78555;SDS011;67851;51.354;7.744;2024-03-02T14:58:34;1.45;;;0.75;;
78555;SDS011;67851;51.354;7.744;2024-03-02T15:01:03;2.00;;;0.80;;
78555;SDS011;67851;51.354;7.744;2024-03-02T15:03:31;1.60;;;0.85;;
78555;SDS011;67851;51.354;7.744;2024-03-02T15:05:58;2.50;;;0.90;;
78555;SDS011;67851;51.354;7.744;2024-03-02T15:08:25;1.27;;;1.00;;
78555;SDS011;67851;51.354;7.744;2024-03-02T15:10:52;0.93;;;0.68;;
78555;SDS011;67851;51.354;7.744;2024-03-02T15:13:22;1.52;;;0.82;;